createdAt,value
2023-03-04T00:04:37.473Z,5.63
2023-03-04T00:19:39.286Z,6.59
2023-03-04T00:34:41.019Z,5.69
2023-03-04T00:49:42.695Z,4.96
2023-03-04T01:04:44.548Z,4.67
2023-03-04T01:19:46.274Z,4.98
2023-03-04T01:34:47.900Z,6.73
2023-03-04T01:49:54.842Z,4.35
2023-03-04T02:04:56.551Z,5.15
2023-03-04T02:20:05.875Z,6.78
2023-03-04T02:35:14.262Z,6.60
2023-03-04T02:50:16.182Z,3.41
2023-03-04T03:05:18.366Z,4.42
2023-03-04T03:20:20.839Z,6.38
2023-03-04T03:35:22.550Z,3.92
2023-03-04T03:50:24.279Z,6.25
2023-03-04T04:05:26.464Z,5.63
2023-03-04T04:20:28.238Z,3.55
2023-03-04T04:35:30.103Z,4.88
2023-03-04T04:50:33.028Z,5.28
2023-03-04T05:05:34.895Z,3.42
2023-03-04T05:20:36.526Z,4.16
2023-03-04T05:35:41.016Z,4.72
2023-03-04T05:50:42.814Z,3.99
2023-03-04T06:05:45.027Z,5.64
2023-03-04T06:20:46.877Z,6.27
2023-03-04T06:35:48.841Z,5.32
2023-03-04T06:50:50.681Z,4.32
2023-03-04T07:05:52.382Z,4.11
2023-03-04T07:20:54.389Z,4.62
2023-03-04T07:36:00.326Z,6.26
2023-03-04T07:51:12.924Z,6.92
2023-03-04T08:06:16.846Z,5.25
2023-03-04T08:21:20.105Z,4.47
2023-03-04T08:36:21.825Z,6.82
2023-03-04T08:51:23.674Z,6.76
2023-03-04T09:06:25.589Z,7.92
2023-03-04T09:21:27.322Z,7.54
2023-03-04T09:36:29.010Z,5.00
2023-03-04T09:51:36.442Z,8.25
2023-03-04T10:06:39.894Z,8.48
2023-03-04T10:21:49.434Z,7.63
2023-03-04T10:36:53.703Z,8.62
2023-03-04T10:52:23.527Z,8.19
2023-03-04T11:07:27.518Z,6.35
2023-03-04T11:22:30.988Z,7.09
2023-03-04T11:38:00.688Z,8.31
2023-03-04T11:53:15.543Z,8.50
2023-03-04T12:08:27.707Z,7.72
2023-03-04T12:24:00.147Z,8.96
2023-03-04T12:39:22.698Z,8.94
2023-03-04T12:54:40.611Z,8.87
2023-03-04T13:09:54.870Z,9.07
2023-03-04T13:24:58.001Z,8.63
2023-03-04T13:40:38.378Z,8.62
2023-03-04T13:55:43.245Z,8.77
2023-03-04T14:10:44.924Z,8.13
2023-03-04T14:25:46.552Z,8.51
2023-03-04T14:41:02.054Z,8.17
2023-03-04T14:56:05.580Z,9.19
2023-03-04T15:11:08.774Z,9.16
2023-03-04T15:26:11.919Z,8.88
2023-03-04T15:41:17.934Z,8.95
2023-03-04T15:56:25.784Z,8.09
2023-03-04T16:11:30.260Z,8.50
2023-03-04T16:26:33.408Z,7.59
2023-03-04T16:41:37.114Z,7.52
2023-03-04T16:56:38.885Z,7.33
2023-03-04T17:11:40.703Z,8.01
2023-03-04T17:26:42.741Z,7.01
2023-03-04T17:41:44.410Z,7.67
2023-03-04T17:56:46.857Z,7.53
2023-03-04T18:11:49.009Z,7.25
2023-03-04T18:26:50.749Z,7.69
2023-03-04T18:41:52.474Z,7.17
2023-03-04T18:56:57.640Z,7.48
2023-03-04T19:11:59.411Z,7.91
2023-03-04T19:27:01.103Z,7.55
2023-03-04T19:42:02.950Z,4.13
2023-03-04T19:57:04.847Z,5.84
2023-03-04T20:12:06.904Z,5.37
2023-03-04T20:27:08.657Z,5.72
2023-03-04T20:42:10.642Z,7.44
2023-03-04T20:57:12.717Z,6.24
2023-03-04T21:12:14.522Z,5.41
2023-03-04T21:27:17.074Z,7.09
2023-03-04T21:42:19.483Z,5.92
2023-03-04T21:57:21.185Z,5.86
2023-03-04T22:12:22.981Z,6.78
2023-03-04T22:27:24.672Z,5.41
2023-03-04T22:42:26.353Z,6.19
2023-03-04T22:57:28.094Z,7.11
2023-03-04T23:12:29.785Z,7.09
2023-03-04T23:27:31.600Z,6.55
2023-03-04T23:42:33.370Z,5.93
2023-03-04T23:57:35.088Z,7.43
